Time;durP1;ratioP1;P1;durP2;ratioP2;P2;SDS_P1;SDS_P2;PMS_P1;PMS_P2;Temp;Humidity;BMP_temperature;BMP_pressure;BME280_temperature;BME280_humidity;BME280_pressure;Samples;Min_cycle;Max_cycle;Signal;HPM_P1;HPM_P2
2022/08/29 00:02:21;;;;;;;2.78;1.20;;;;;;;17.00;69.62;102303.91;5019113;28;20100;-79
2022/08/29 00:04:46;;;;;;;2.42;1.02;;;;;;;16.96;69.63;102295.22;5018927;28;20079;-79
2022/08/29 00:07:12;;;;;;;1.15;1.05;;;;;;;16.95;69.46;102298.78;5036795;28;20340;-79
2022/08/29 00:09:37;;;;;;;1.60;1.35;;;;;;;16.92;69.68;102298.94;5036215;28;20052;-79
2022/08/29 00:12:04;;;;;;;1.50;1.40;;;;;;;16.91;69.54;102301.66;5019351;28;20037;-79
2022/08/29 00:14:30;;;;;;;1.40;1.30;;;;;;;16.88;69.42;102297.34;5018773;28;20036;-79
2022/08/29 00:16:55;;;;;;;1.70;1.02;;;;;;;16.86;69.70;102299.19;5018643;28;20041;-79
2022/08/29 00:19:21;;;;;;;1.83;1.13;;;;;;;16.83;69.58;102294.06;5018806;28;20115;-80
2022/08/29 00:21:46;;;;;;;1.80;1.10;;;;;;;16.80;69.71;102297.66;5035957;28;20033;-79
2022/08/29 00:24:12;;;;;;;2.38;1.40;;;;;;;16.79;69.86;102301.25;5036220;28;20280;-79
2022/08/29 00:26:37;;;;;;;2.55;1.20;;;;;;;16.76;69.85;102303.16;5002333;28;20136;-79
2022/08/29 00:29:03;;;;;;;1.48;1.30;;;;;;;16.73;69.88;102306.78;5018562;28;20279;-79
2022/08/29 00:31:29;;;;;;;1.88;1.40;;;;;;;16.70;69.79;102304.28;5017879;28;20033;-79
2022/08/29 00:33:56;;;;;;;1.30;1.20;;;;;;;16.69;69.86;102303.41;5036553;28;20036;-79
2022/08/29 00:36:22;;;;;;;1.13;1.02;;;;;;;16.66;69.67;102303.56;5018463;28;20267;-79
2022/08/29 00:38:47;;;;;;;2.08;1.30;;;;;;;16.63;69.77;102298.41;5036257;28;20041;-79
2022/08/29 00:41:13;;;;;;;1.77;1.25;;;;;;;16.61;69.89;102300.25;5018587;28;20112;-80
2022/08/29 00:43:38;;;;;;;3.40;1.30;;;;;;;16.59;70.19;102307.41;5001339;28;20052;-79
2022/08/29 00:46:33;;;;;;;1.33;1.13;;;;;;;16.57;70.27;102305.72;5036445;28;20064;-79
2022/08/29 00:49:03;;;;;;;1.88;1.05;;;;;;;16.54;70.12;102300.59;5018461;28;20455;-79
2022/08/29 00:51:30;;;;;;;2.28;1.35;;;;;;;16.52;70.19;102300.66;5036246;28;20336;-79
2022/08/29 00:54:08;;;;;;;1.23;1.10;;;;;;;16.48;70.32;102299.91;5035962;28;20091;-79
2022/08/29 00:56:36;;;;;;;2.55;1.30;;;;;;;16.48;70.10;102299.03;5035938;28;20033;-79
2022/08/29 00:59:11;;;;;;;1.70;1.60;;;;;;;16.46;70.30;102295.59;5018027;28;20041;-80
2022/08/29 01:01:37;;;;;;;1.60;1.48;;;;;;;16.44;70.29;102294.81;5035705;28;20021;-79
2022/08/29 01:04:04;;;;;;;1.52;1.20;;;;;;;16.40;70.29;102298.50;5017819;28;20079;-79
2022/08/29 01:06:30;;;;;;;2.45;1.50;;;;;;;16.38;70.50;102298.56;5017620;28;20053;-79
2022/08/29 01:08:56;;;;;;;2.55;1.27;;;;;;;16.38;70.69;102303.00;5018055;28;20060;-79
2022/08/29 01:14:06;;;;;;;2.42;1.30;;;;;;;16.33;70.68;102308.47;5020507;28;20045;-79
2022/08/29 01:16:32;;;;;;;1.75;1.27;;;;;;;16.31;70.61;102303.25;5017455;28;20029;-79
2022/08/29 01:19:02;;;;;;;1.42;1.30;;;;;;;16.29;70.75;102307.75;5017716;28;20067;-79
2022/08/29 01:21:42;;;;;;;2.33;1.42;;;;;;;16.27;70.70;102311.38;5035244;28;20025;-80
2022/08/29 01:24:14;;;;;;;2.80;1.80;;;;;;;16.24;70.47;102303.56;5035490;28;20336;-79
2022/08/29 01:26:41;;;;;;;1.65;1.30;;;;;;;16.22;70.57;102310.72;5017303;28;20025;-79
2022/08/29 01:29:07;;;;;;;1.80;1.23;;;;;;;16.21;70.69;102312.50;5035450;28;20374;-79
2022/08/29 01:31:39;;;;;;;2.30;1.40;;;;;;;16.17;70.74;102303.00;5034972;28;20047;-79
2022/08/29 01:34:05;;;;;;;1.50;1.40;;;;;;;16.15;71.08;102306.59;5035269;28;20033;-80
2022/08/29 01:36:50;;;;;;;1.38;1.27;;;;;;;16.14;70.94;102304.91;5034872;28;20056;-79
2022/08/29 01:39:17;;;;;;;1.40;1.30;;;;;;;16.11;70.74;102305.84;5035304;28;20454;-79
2022/08/29 01:41:43;;;;;;;3.63;1.45;;;;;;;16.09;70.81;102303.28;5034828;28;20041;-79
2022/08/29 01:44:16;;;;;;;1.48;1.38;;;;;;;16.05;70.99;102301.69;5016955;28;20087;-80
2022/08/29 01:46:42;;;;;;;3.00;1.50;;;;;;;16.04;70.99;102299.09;5016888;28;20033;-79
2022/08/29 01:49:09;;;;;;;1.40;1.23;;;;;;;16.02;71.18;102299.16;5034823;28;20095;-79
2022/08/29 01:51:36;;;;;;;1.73;1.10;;;;;;;16.01;71.08;102304.50;5034905;28;20233;-79
2022/08/29 01:54:04;;;;;;;2.90;1.67;;;;;;;15.99;71.23;102298.41;5034943;28;20031;-79
2022/08/29 01:56:32;;;;;;;2.53;1.20;;;;;;;15.96;71.29;102298.56;5034121;28;20108;-79
2022/08/29 01:58:59;;;;;;;3.03;1.30;;;;;;;15.95;71.11;102299.47;5035048;28;20043;-79
2022/08/29 02:01:28;;;;;;;1.70;1.50;;;;;;;15.92;71.33;102311.03;5016438;28;20025;-79
2022/08/29 02:03:53;;;;;;;3.03;1.33;;;;;;;15.90;71.04;102305.81;5017089;28;20037;-79
2022/08/29 02:06:19;;;;;;;1.45;1.30;;;;;;;15.88;71.18;102305.00;5016965;28;20033;-80
2022/08/29 02:08:44;;;;;;;1.50;1.40;;;;;;;15.86;71.20;102305.97;5034080;28;20260;-79
2022/08/29 02:11:11;;;;;;;1.48;1.20;;;;;;;15.85;71.21;102307.78;5016926;28;20041;-79
2022/08/29 02:13:40;;;;;;;1.55;1.27;;;;;;;15.83;71.23;102306.13;5016370;28;20275;-79
2022/08/29 02:16:06;;;;;;;1.20;1.05;;;;;;;15.82;71.25;102293.81;5035190;28;20086;-79
2022/08/29 02:18:32;;;;;;;1.60;1.40;;;;;;;15.80;71.52;102300.94;5034310;28;20226;-79
2022/08/29 02:20:58;;;;;;;2.63;1.42;;;;;;;15.78;71.56;102298.38;5034613;28;20116;-79
2022/08/29 02:23:24;;;;;;;1.52;1.25;;;;;;;15.76;71.29;102291.44;5033499;28;20076;-79
2022/08/29 02:25:50;;;;;;;2.35;1.15;;;;;;;15.73;71.66;102287.97;5016960;28;20041;-79
2022/08/29 02:28:17;;;;;;;1.42;1.20;;;;;;;15.72;71.72;102294.16;5034619;28;20222;-79
2022/08/29 02:30:45;;;;;;;1.55;1.23;;;;;;;15.71;71.58;102294.22;5034435;28;20375;-79
2022/08/29 02:33:12;;;;;;;1.52;1.20;;;;;;;15.70;71.73;102295.16;5034569;28;20051;-79
2022/08/29 02:35:38;;;;;;;1.50;1.17;;;;;;;15.69;71.66;102298.69;5034338;28;20198;-79
2022/08/29 02:38:04;;;;;;;1.33;1.17;;;;;;;15.67;71.70;102293.47;5016485;28;20033;-79
2022/08/29 02:40:30;;;;;;;1.13;1.02;;;;;;;15.65;71.95;102295.31;5016758;28;20236;-79
2022/08/29 02:42:55;;;;;;;1.00;0.98;;;;;;;15.64;71.87;102296.22;5034851;28;20041;-79
2022/08/29 02:45:22;;;;;;;1.55;1.38;;;;;;;15.63;71.72;102304.22;5034138;28;20034;-79
2022/08/29 02:47:48;;;;;;;1.73;1.35;;;;;;;15.62;71.94;102308.63;5034091;28;20065;-79
2022/08/29 02:50:14;;;;;;;1.60;1.40;;;;;;;15.60;71.96;102299.06;5016675;28;20036;-79
2022/08/29 02:52:41;;;;;;;2.38;1.50;;;;;;;15.58;71.83;102301.75;5016154;28;20021;-79
2022/08/29 02:55:11;;;;;;;2.38;1.45;;;;;;;15.57;71.84;102299.16;5035001;28;20084;-79
2022/08/29 02:57:37;;;;;;;2.35;1.55;;;;;;;15.55;71.98;102292.19;5033990;28;20057;-79
2022/08/29 03:00:07;;;;;;;2.17;1.63;;;;;;;15.54;72.07;102300.16;5000460;28;20033;-79
2022/08/29 03:02:33;;;;;;;1.60;1.50;;;;;;;15.52;71.98;102304.63;5033602;28;20427;-79
2022/08/29 03:04:58;;;;;;;1.30;1.20;;;;;;;15.51;72.18;102303.75;5034812;28;20116;-79
2022/08/29 03:07:24;;;;;;;1.52;1.33;;;;;;;15.50;72.34;102299.41;5034612;28;20043;-79
2022/08/29 03:09:50;;;;;;;2.03;1.33;;;;;;;15.48;72.29;102298.63;5016822;28;20105;-79
2022/08/29 03:12:15;;;;;;;2.05;1.30;;;;;;;15.48;72.24;102293.34;4999946;28;20056;-79
2022/08/29 03:14:41;;;;;;;1.80;1.40;;;;;;;15.46;72.32;102286.38;5034488;28;20045;-79
2022/08/29 03:17:06;;;;;;;1.60;1.38;;;;;;;15.45;72.24;102293.44;5016655;28;20033;-79
2022/08/29 03:19:32;;;;;;;2.42;1.50;;;;;;;15.43;72.54;102290.00;4999944;28;20302;-79
2022/08/29 03:21:59;;;;;;;2.10;1.30;;;;;;;15.43;72.39;102291.78;5016868;28;20033;-79
2022/08/29 03:24:25;;;;;;;2.55;1.55;;;;;;;15.41;72.58;102286.56;5016269;28;20104;-79
2022/08/29 03:26:50;;;;;;;1.45;1.35;;;;;;;15.40;72.49;102286.63;4999978;28;20164;-79
2022/08/29 03:29:16;;;;;;;1.75;1.60;;;;;;;15.38;72.59;102283.19;5033997;28;20041;-79
2022/08/29 03:31:41;;;;;;;4.75;1.42;;;;;;;15.39;72.40;102284.88;5016143;28;20096;-79
2022/08/29 03:34:06;;;;;;;2.05;1.60;;;;;;;15.37;72.50;102287.56;5000068;28;20283;-79
2022/08/29 03:36:32;;;;;;;1.55;1.45;;;;;;;15.35;72.56;102282.38;5019425;28;20057;-79
2022/08/29 03:38:57;;;;;;;2.13;1.58;;;;;;;15.34;72.50;102282.44;5020165;28;20033;-79
2022/08/29 03:41:27;;;;;;;3.28;1.63;;;;;;;15.32;72.45;102277.22;5003177;28;20105;-79
2022/08/29 03:43:57;;;;;;;1.60;1.50;;;;;;;15.30;72.72;102271.13;5019880;28;20029;-79
2022/08/29 03:46:23;;;;;;;3.50;1.73;;;;;;;15.30;72.43;102262.38;5019396;28;20025;-79
2022/08/29 03:48:48;;;;;;;2.17;1.65;;;;;;;15.27;72.39;102267.75;5002957;28;20033;-79
2022/08/29 03:51:15;;;;;;;1.95;1.73;;;;;;;15.25;72.58;102262.53;5037503;28;20037;-79
2022/08/29 03:53:42;;;;;;;2.30;1.60;;;;;;;15.26;72.50;102263.38;5019657;28;20041;-79
2022/08/29 03:56:08;;;;;;;3.20;1.73;;;;;;;15.24;72.55;102252.88;5019741;28;20104;-79
2022/08/29 03:58:34;;;;;;;1.73;1.52;;;;;;;15.22;72.32;102257.34;4999017;28;20416;-79
2022/08/29 04:00:59;;;;;;;1.75;1.55;;;;;;;15.22;72.75;102260.00;5036523;28;20037;-79
2022/08/29 04:03:26;;;;;;;2.00;1.80;;;;;;;15.21;72.88;102257.41;5018671;28;20036;-79
2022/08/29 04:05:51;;;;;;;1.75;1.65;;;;;;;15.20;72.84;102259.19;5037911;28;20529;-79
2022/08/29 04:08:17;;;;;;;1.75;1.42;;;;;;;15.18;72.54;102265.44;5019360;28;20026;-79
2022/08/29 04:10:42;;;;;;;2.95;1.60;;;;;;;15.18;72.54;102262.81;5037262;28;20060;-79
2022/08/29 04:13:08;;;;;;;1.70;1.42;;;;;;;15.15;72.67;102269.94;5037168;28;20033;-79
2022/08/29 04:15:34;;;;;;;2.67;1.60;;;;;;;15.14;72.77;102267.34;5036709;28;20044;-79
2022/08/29 04:18:03;;;;;;;2.28;1.65;;;;;;;15.13;72.63;102273.53;5036803;28;20040;-79
2022/08/29 04:20:31;;;;;;;1.60;1.50;;;;;;;15.12;72.76;102277.09;5036017;28;20387;-79
2022/08/29 04:22:58;;;;;;;2.65;1.77;;;;;;;15.10;72.73;102263.09;5037317;28;20092;-79
2022/08/29 04:25:25;;;;;;;1.70;1.40;;;;;;;15.09;72.87;102270.13;5018593;28;20041;-79
2022/08/29 04:27:52;;;;;;;1.60;1.50;;;;;;;15.08;72.67;102275.47;5003095;28;20344;-79
2022/08/29 04:30:20;;;;;;;2.92;1.60;;;;;;;15.05;72.80;102270.31;5018714;28;20271;-79
2022/08/29 04:32:46;;;;;;;1.55;1.45;;;;;;;15.04;72.84;102273.88;5018822;28;20391;-79
2022/08/29 04:35:13;;;;;;;1.90;1.60;;;;;;;15.04;72.96;102277.34;5019147;28;20045;-79
2022/08/29 04:37:40;;;;;;;2.90;1.65;;;;;;;15.03;72.95;102277.44;5023504;28;20052;-79
2022/08/29 04:40:08;;;;;;;4.65;1.80;;;;;;;15.01;73.23;102273.97;5028759;28;20048;-79
2022/08/29 04:42:38;;;;;;;2.80;1.55;;;;;;;15.00;72.93;102272.25;4999640;28;20057;-79
2022/08/29 04:45:06;;;;;;;1.50;1.40;;;;;;;14.98;72.84;102286.34;5017104;28;20049;-79
2022/08/29 04:47:35;;;;;;;2.60;2.03;;;;;;;14.96;73.14;102287.34;5033234;28;20068;-79
2022/08/29 04:50:01;;;;;;;1.50;1.40;;;;;;;14.95;72.89;102286.50;5017598;28;20220;-79
2022/08/29 04:52:27;;;;;;;2.70;1.55;;;;;;;14.94;72.90;102294.47;5034119;28;20067;-79
2022/08/29 04:54:53;;;;;;;1.70;1.60;;;;;;;14.94;72.96;102292.66;5000064;28;20351;-79
2022/08/29 04:57:18;;;;;;;1.77;1.33;;;;;;;14.94;73.24;102295.31;5034444;28;20037;-79
2022/08/29 04:59:44;;;;;;;1.73;1.60;;;;;;;14.93;73.20;102295.34;5029996;28;20353;-79
2022/08/29 05:02:09;;;;;;;2.38;1.52;;;;;;;14.91;72.98;102298.03;5015367;28;20061;-79
2022/08/29 05:04:35;;;;;;;2.30;1.48;;;;;;;14.91;73.00;102300.69;5013908;28;20049;-79
2022/08/29 05:07:00;;;;;;;1.65;1.17;;;;;;;14.92;73.21;102299.78;5016644;28;20079;-79
2022/08/29 05:09:25;;;;;;;1.63;1.50;;;;;;;14.92;73.11;102301.56;5016193;28;20044;-79
2022/08/29 05:11:51;;;;;;;1.70;1.60;;;;;;;14.91;73.09;102302.47;5016695;28;20049;-79
2022/08/29 05:14:16;;;;;;;2.65;1.55;;;;;;;14.90;73.04;102306.91;5016430;28;20210;-79
2022/08/29 05:16:42;;;;;;;1.63;1.50;;;;;;;14.91;72.95;102303.31;5016497;28;20049;-79
2022/08/29 05:19:08;;;;;;;1.40;1.30;;;;;;;14.92;73.14;102309.47;5000801;28;20041;-79
2022/08/29 05:21:36;;;;;;;1.55;1.45;;;;;;;14.91;73.17;102307.75;5033546;28;20103;-79
2022/08/29 05:24:04;;;;;;;3.03;1.30;;;;;;;14.91;72.88;102307.75;5016177;28;20064;-79
2022/08/29 05:26:32;;;;;;;1.70;1.50;;;;;;;14.92;73.15;102306.84;5033994;28;20063;-79
2022/08/29 05:28:58;;;;;;;3.00;1.33;;;;;;;14.92;72.88;102314.75;5016565;28;20111;-79
2022/08/29 05:31:23;;;;;;;1.77;1.25;;;;;;;14.93;73.07;102306.75;5016017;28;20033;-79
2022/08/29 05:33:49;;;;;;;1.40;1.30;;;;;;;14.94;72.96;102316.41;5016898;28;20483;-79
2022/08/29 05:36:14;;;;;;;2.15;1.58;;;;;;;14.95;73.12;102314.63;5015819;28;20033;-79
2022/08/29 05:38:40;;;;;;;1.35;1.25;;;;;;;14.95;73.06;102310.22;5034005;28;20056;-79
2022/08/29 05:41:06;;;;;;;2.13;1.73;;;;;;;14.96;72.94;102316.34;5016558;28;20471;-79
2022/08/29 05:43:33;;;;;;;2.08;1.10;;;;;;;14.97;73.04;102315.44;5014994;28;20041;-79
2022/08/29 05:46:01;;;;;;;1.45;1.30;;;;;;;14.96;72.96;102319.84;5016415;28;20268;-79
2022/08/29 05:48:26;;;;;;;3.47;1.60;;;;;;;14.99;72.83;102326.81;4998589;28;20083;-79
2022/08/29 05:50:52;;;;;;;2.28;1.45;;;;;;;14.98;73.02;102325.94;5011356;28;20092;-79
2022/08/29 05:53:18;;;;;;;4.70;1.60;;;;;;;14.98;73.25;102325.06;4999535;28;20037;-79
2022/08/29 05:55:43;;;;;;;3.33;1.80;;;;;;;15.00;73.30;102328.53;5016099;28;20336;-79
2022/08/29 05:58:10;;;;;;;5.20;1.98;;;;;;;15.01;73.24;102332.00;5032420;28;20099;-79
2022/08/29 06:00:38;;;;;;;2.38;2.17;;;;;;;15.02;73.34;102328.47;5015565;28;20021;-79
2022/08/29 06:03:03;;;;;;;4.32;1.83;;;;;;;15.03;73.31;102327.56;5006436;28;20312;-79
2022/08/29 06:05:28;;;;;;;4.65;2.00;;;;;;;15.04;73.59;102324.84;5008198;28;20049;-79
2022/08/29 06:07:54;;;;;;;5.03;2.22;;;;;;;15.03;73.94;102320.50;5009810;28;20568;-79
2022/08/29 06:10:19;;;;;;;3.60;1.73;;;;;;;15.06;73.93;102323.03;4992821;28;20060;-79
2022/08/29 06:12:45;;;;;;;2.05;1.73;;;;;;;15.07;74.15;102315.97;5004524;28;20040;-79
2022/08/29 06:15:10;;;;;;;2.13;1.65;;;;;;;15.08;74.18;102322.97;5019049;28;20061;-79
2022/08/29 06:17:36;;;;;;;6.40;1.95;;;;;;;15.09;74.34;102324.69;4999019;28;20046;-79
2022/08/29 06:20:07;;;;;;;3.13;1.90;;;;;;;15.10;74.65;102323.78;4983264;28;20100;-79
2022/08/29 06:22:34;;;;;;;2.45;1.98;;;;;;;15.10;74.67;102319.38;5015237;28;20248;-79
2022/08/29 06:24:59;;;;;;;2.20;2.00;;;;;;;15.14;74.77;102333.31;4997117;28;20235;-79
2022/08/29 06:27:25;;;;;;;2.38;2.00;;;;;;;15.14;75.03;102326.25;5029561;28;20041;-79
2022/08/29 06:29:50;;;;;;;3.53;1.85;;;;;;;15.16;74.92;102318.28;4997217;28;20360;-78
2022/08/29 06:32:16;;;;;;;2.65;2.13;;;;;;;15.16;75.33;102315.63;5011717;28;20076;-78
2022/08/29 06:34:41;;;;;;;2.08;1.88;;;;;;;15.18;75.35;102321.72;5034141;28;20092;-79
2022/08/29 06:37:07;;;;;;;2.22;2.03;;;;;;;15.20;75.38;102324.31;4994702;28;20290;-79
2022/08/29 06:39:32;;;;;;;2.55;1.98;;;;;;;15.23;75.65;102324.22;5015083;28;20043;-79
2022/08/29 06:41:57;;;;;;;3.15;2.25;;;;;;;15.23;75.54;102329.47;5032917;28;20122;-78
2022/08/29 06:44:23;;;;;;;2.17;1.98;;;;;;;15.24;76.02;102331.19;5014844;28;20179;-79
2022/08/29 06:46:49;;;;;;;3.03;2.08;;;;;;;15.26;76.10;102337.25;5017079;28;20052;-79
2022/08/29 06:49:17;;;;;;;1.73;1.63;;;;;;;15.26;76.18;102335.50;5030067;28;20037;-79
2022/08/29 06:51:48;;;;;;;1.95;1.80;;;;;;;15.28;75.93;102340.72;5025126;28;20053;-79
2022/08/29 06:54:14;;;;;;;2.28;2.15;;;;;;;15.29;75.88;102332.75;5009504;28;20451;-78
2022/08/29 06:56:40;;;;;;;2.38;2.17;;;;;;;15.30;75.76;102334.47;5031170;28;20033;-79
2022/08/29 06:59:06;;;;;;;2.40;2.20;;;;;;;15.33;75.87;102337.00;5032366;28;20050;-78
2022/08/29 07:01:33;;;;;;;2.38;1.95;;;;;;;15.36;76.07;102338.66;5032573;28;20247;-79
2022/08/29 07:03:58;;;;;;;2.67;2.17;;;;;;;15.36;76.40;102338.66;5014838;28;20025;-79
2022/08/29 07:06:25;;;;;;;5.35;2.22;;;;;;;15.38;76.46;102336.81;4994851;28;20057;-79
2022/08/29 07:08:50;;;;;;;2.88;2.58;;;;;;;15.41;76.53;102335.84;5031496;28;20041;-79
2022/08/29 07:11:16;;;;;;;2.65;2.08;;;;;;;15.41;76.76;102334.06;5008219;28;20045;-79
2022/08/29 07:13:42;;;;;;;2.90;2.60;;;;;;;15.43;77.01;102334.03;5000270;28;20037;-79
2022/08/29 07:16:15;;;;;;;2.92;2.63;;;;;;;15.45;77.14;102333.03;5001172;28;20095;-79
2022/08/29 07:18:41;;;;;;;2.65;2.20;;;;;;;15.47;76.98;102339.13;5018161;28;20192;-79
2022/08/29 07:21:08;;;;;;;6.93;2.50;;;;;;;15.48;77.06;102337.34;5002322;28;20021;-79
2022/08/29 07:23:34;;;;;;;2.40;2.20;;;;;;;15.49;77.46;102329.34;5017669;28;20116;-79
2022/08/29 07:26:07;;;;;;;3.65;2.47;;;;;;;15.52;77.06;102328.41;5018340;28;20041;-79
2022/08/29 07:28:34;;;;;;;4.55;2.58;;;;;;;15.54;77.22;102323.91;5035760;28;20032;-79
2022/08/29 07:31:00;;;;;;;2.58;1.98;;;;;;;15.55;76.92;102322.97;5017758;28;20045;-79
2022/08/29 07:33:25;;;;;;;7.82;3.05;;;;;;;15.57;76.62;102320.28;5014462;28;20069;-79
2022/08/29 07:35:53;;;;;;;4.20;2.78;;;;;;;15.58;76.50;102319.38;5017502;28;20048;-79
2022/08/29 07:38:19;;;;;;;2.83;2.58;;;;;;;15.60;76.51;102328.09;4986250;28;20029;-79
2022/08/29 07:40:44;;;;;;;2.85;2.58;;;;;;;15.61;76.56;102328.03;4992804;28;20071;-79
2022/08/29 07:43:10;;;;;;;4.05;2.63;;;;;;;15.64;76.35;102330.53;4997530;28;20029;-79
2022/08/29 07:45:37;;;;;;;2.35;1.92;;;;;;;15.65;76.36;102329.66;5027010;28;20056;-79
2022/08/29 07:48:03;;;;;;;5.68;2.65;;;;;;;15.67;76.48;102330.44;5015750;28;20033;-79
2022/08/29 07:50:28;;;;;;;3.50;2.28;;;;;;;15.68;75.85;102339.22;5026046;28;20225;-79
2022/08/29 07:52:54;;;;;;;5.28;2.50;;;;;;;15.68;75.72;102336.56;5008992;28;20037;-79
2022/08/29 07:55:20;;;;;;;3.60;3.15;;;;;;;15.70;75.61;102337.41;5006716;28;20312;-79
2022/08/29 07:57:47;;;;;;;3.63;2.67;;;;;;;15.72;75.48;102331.13;4991785;28;20271;-79
2022/08/29 08:00:13;;;;;;;6.38;2.63;;;;;;;15.73;75.21;102339.91;5010608;28;20049;-79
2022/08/29 08:02:38;;;;;;;3.67;2.63;;;;;;;15.74;74.63;102331.09;5010334;28;20225;-79
2022/08/29 08:05:04;;;;;;;4.15;2.47;;;;;;;15.75;74.49;102327.53;5025906;28;20044;-79
2022/08/29 08:07:31;;;;;;;4.32;2.67;;;;;;;15.77;73.79;102328.34;5018202;28;20155;-79
2022/08/29 08:09:57;;;;;;;5.20;2.80;;;;;;;15.78;73.54;102337.13;5034201;28;20377;-79
2022/08/29 08:12:24;;;;;;;4.78;3.13;;;;;;;15.78;73.22;102343.25;5033954;28;20038;-79
2022/08/29 08:14:50;;;;;;;2.97;2.40;;;;;;;15.78;72.91;102337.13;5000567;28;20110;-79
2022/08/29 08:17:15;;;;;;;5.07;2.97;;;;;;;15.79;72.51;102337.06;5000269;28;20247;-79
2022/08/29 08:19:41;;;;;;;3.55;2.45;;;;;;;15.81;72.29;102331.72;5016000;28;20076;-79
2022/08/29 08:22:07;;;;;;;4.13;2.70;;;;;;;15.81;71.93;102334.34;4999461;28;20040;-79
2022/08/29 08:24:32;;;;;;;7.53;3.08;;;;;;;15.83;71.43;102335.19;5034322;28;20045;-79
2022/08/29 08:26:57;;;;;;;3.40;2.40;;;;;;;15.84;71.65;102335.09;5034477;28;20037;-79
2022/08/29 08:29:23;;;;;;;6.07;2.80;;;;;;;15.87;71.46;102336.78;5018801;28;20067;-79
2022/08/29 08:31:50;;;;;;;4.78;3.00;;;;;;;15.88;71.30;102331.44;5046083;28;20045;-79
2022/08/29 08:34:17;;;;;;;5.28;2.83;;;;;;;15.89;70.81;102329.66;5015714;28;20236;-79
2022/08/29 08:36:44;;;;;;;3.13;2.60;;;;;;;15.92;70.59;102338.31;5023227;28;20377;-79
2022/08/29 08:39:10;;;;;;;3.63;2.67;;;;;;;15.93;70.75;102340.03;5021227;28;20336;-79
2022/08/29 08:41:54;;;;;;;4.57;2.97;;;;;;;15.97;70.83;102340.78;5033719;28;20079;-79
2022/08/29 08:44:27;;;;;;;5.78;2.90;;;;;;;16.00;71.33;102350.34;5012223;28;20298;-79
2022/08/29 08:47:00;;;;;;;5.00;2.97;;;;;;;16.01;70.53;102344.13;5033216;28;20030;-79
2022/08/29 08:49:41;;;;;;;5.13;3.25;;;;;;;16.05;70.43;102358.97;5033784;28;20079;-79
2022/08/29 08:52:16;;;;;;;6.68;2.97;;;;;;;16.06;69.64;102358.03;5030355;28;20041;-79
2022/08/29 08:55:08;;;;;;;5.82;2.70;;;;;;;16.09;69.30;102357.91;5025840;28;20393;-79
2022/08/29 08:57:43;;;;;;;6.13;3.13;;;;;;;16.10;69.12;102359.66;5026197;28;20418;-79
2022/08/29 09:00:11;;;;;;;7.20;2.70;;;;;;;16.15;68.84;102367.38;5024396;28;20351;-79
2022/08/29 09:03:02;;;;;;;6.63;2.80;;;;;;;16.21;68.42;102368.00;5015783;28;20049;-79
2022/08/29 09:05:41;;;;;;;3.67;2.78;;;;;;;16.27;67.11;102366.91;5031319;28;20284;-79
2022/08/29 09:08:33;;;;;;;6.53;2.65;;;;;;;16.30;66.77;102366.78;5033874;28;20410;-79
2022/08/29 09:11:10;;;;;;;4.25;3.00;;;;;;;16.35;67.19;102362.16;5011841;28;20053;-79
2022/08/29 09:13:52;;;;;;;6.70;3.13;;;;;;;16.38;66.88;102358.53;5015754;28;20337;-79
2022/08/29 09:16:25;;;;;;;10.35;2.85;;;;;;;16.40;66.88;102349.59;5015338;28;20115;-79
2022/08/29 09:18:50;;;;;;;3.33;2.58;;;;;;;16.46;67.39;102364.34;5030855;28;20045;-79
2022/08/29 09:21:20;;;;;;;9.48;3.47;;;;;;;16.48;67.21;102358.09;5027116;28;20064;-79
2022/08/29 09:23:48;;;;;;;3.38;2.30;;;;;;;16.53;66.16;102360.53;5031732;28;20061;-79
2022/08/29 09:26:16;;;;;;;6.13;2.30;;;;;;;16.57;66.92;102355.97;5033586;28;20041;-79
2022/08/29 09:28:42;;;;;;;5.90;2.93;;;;;;;16.62;66.52;102369.88;5032802;28;20276;-79
2022/08/29 09:31:22;;;;;;;8.90;2.85;;;;;;;16.65;65.41;102375.03;5015503;28;20025;-79
2022/08/29 09:33:51;;;;;;;4.00;2.88;;;;;;;16.66;65.48;102363.53;5024643;28;20080;-79
2022/08/29 09:36:32;;;;;;;;;;;;;;;16.68;65.46;102367.84;5033232;28;20045;-80
2022/08/29 09:39:09;;;;;;;4.97;2.65;;;;;;;16.68;66.02;102365.19;5031143;28;19917;-79
2022/08/29 09:41:35;;;;;;;13.70;3.90;;;;;;;16.71;66.25;102358.91;5033164;28;20041;-79
2022/08/29 09:44:00;;;;;;;5.70;2.90;;;;;;;16.73;65.76;102361.47;5016045;28;20235;-79
2022/08/29 09:46:25;;;;;;;4.03;2.65;;;;;;;16.77;66.13;102358.66;5031973;28;20068;-79
2022/08/29 09:48:57;;;;;;;5.05;2.70;;;;;;;16.80;65.88;102355.00;4999460;28;20283;-79
2022/08/29 09:51:29;;;;;;;6.88;2.60;;;;;;;16.83;65.73;102349.63;5014332;28;20100;-79
2022/08/29 09:54:35;;;;;;;7.50;3.40;;;;;;;16.83;65.63;102350.47;5033091;28;20485;-80
2022/08/29 09:57:07;;;;;;;9.05;3.00;;;;;;;16.86;66.19;102349.47;5023122;28;20075;-79
2022/08/29 09:59:34;;;;;;;4.70;2.97;;;;;;;16.88;65.97;102352.91;5014399;28;20060;-79
2022/08/29 10:02:21;;;;;;;7.22;2.65;;;;;;;16.92;66.32;102358.94;5023704;28;20031;-79
2022/08/29 10:04:54;;;;;;;3.83;2.88;;;;;;;16.92;65.79;102359.81;5032385;28;20064;-79
2022/08/29 10:07:47;;;;;;;10.23;3.85;;;;;;;16.93;65.69;102358.88;5033836;28;20028;-79
2022/08/29 10:10:21;;;;;;;6.72;2.70;;;;;;;16.97;65.82;102359.59;5021422;28;20053;-79
2022/08/29 10:13:00;;;;;;;6.53;2.88;;;;;;;16.98;66.19;102366.63;5034268;28;20033;-79
2022/08/29 10:15:32;;;;;;;6.22;2.90;;;;;;;16.98;65.69;102356.03;5032245;28;20136;-79
2022/08/29 10:21:18;;;;;;;5.13;2.95;;;;;;;17.04;65.84;102366.34;5033926;28;20071;-79
2022/08/29 10:23:52;;;;;;;4.18;2.58;;;;;;;17.10;65.91;102365.22;5033651;28;20324;-79
2022/08/29 10:26:50;;;;;;;3.75;2.90;;;;;;;17.08;65.73;102360.88;5015903;28;20036;-79
2022/08/29 10:29:42;;;;;;;5.63;2.83;;;;;;;17.12;65.82;102364.22;4998367;28;20041;-79
2022/08/29 10:32:10;;;;;;;5.75;2.85;;;;;;;17.14;65.73;102358.88;5033235;28;20127;-79
2022/08/29 10:34:57;;;;;;;8.60;3.50;;;;;;;17.17;65.42;102356.97;5015908;28;20059;-79
2022/08/29 10:37:45;;;;;;;3.72;2.63;;;;;;;17.17;64.96;102356.97;5033477;28;20036;-79
2022/08/29 10:40:22;;;;;;;9.88;2.67;;;;;;;17.16;65.20;102355.22;5015827;28;20399;-80
2022/08/29 10:42:52;;;;;;;4.30;2.70;;;;;;;17.18;64.97;102350.72;5028206;28;20076;-79
2022/08/29 10:45:34;;;;;;;7.30;2.88;;;;;;;17.17;65.21;102348.13;5020129;28;20199;-79
2022/08/29 10:48:20;;;;;;;3.88;2.50;;;;;;;17.18;65.31;102342.78;5030741;28;20120;-79
2022/08/29 10:51:08;;;;;;;3.08;2.15;;;;;;;17.20;64.41;102338.25;5033427;28;20040;-80
2022/08/29 10:53:40;;;;;;;9.07;2.78;;;;;;;17.21;65.02;102340.00;5011578;28;20252;-80
2022/08/29 10:56:26;;;;;;;5.40;2.60;;;;;;;17.23;64.99;102345.22;5015648;28;20083;-79
2022/08/29 10:59:11;;;;;;;6.32;2.75;;;;;;;17.23;64.74;102340.78;5006298;28;20044;-79
2022/08/29 11:01:44;;;;;;;3.03;2.35;;;;;;;17.25;65.03;102335.44;5012112;28;20048;-79
2022/08/29 11:04:16;;;;;;;7.47;2.72;;;;;;;17.27;65.46;102331.78;5012085;28;20034;-79
2022/08/29 11:07:00;;;;;;;10.95;2.90;;;;;;;17.30;64.63;102341.38;5013566;28;20197;-79
2022/08/29 11:09:50;;;;;;;4.82;2.70;;;;;;;17.31;64.60;102337.78;5000948;28;20034;-80
2022/08/29 11:12:30;;;;;;;4.75;2.72;;;;;;;17.33;64.75;102338.56;5013789;28;20061;-79
2022/08/29 11:15:01;;;;;;;7.40;2.65;;;;;;;17.36;65.16;102333.13;5010119;28;20045;-79
2022/08/29 11:17:34;;;;;;;3.67;2.38;;;;;;;17.39;65.06;102333.00;5011892;28;20329;-79
2022/08/29 11:20:10;;;;;;;7.90;2.80;;;;;;;17.46;65.50;102330.91;5014054;28;20096;-79
2022/08/29 11:22:51;;;;;;;6.40;2.25;;;;;;;17.50;65.05;102315.75;5013012;28;20066;-79
2022/08/29 11:25:19;;;;;;;7.68;3.28;;;;;;;17.54;64.58;102320.00;5012795;28;20061;-79
2022/08/29 11:28:18;;;;;;;9.80;3.03;;;;;;;17.60;64.63;102323.19;5011915;28;20029;-79
2022/08/29 11:31:18;;;;;;;5.43;2.75;;;;;;;17.68;64.11;102327.28;5011195;28;20380;-79
2022/08/29 11:33:48;;;;;;;6.22;2.67;;;;;;;17.71;63.88;102322.69;5006375;28;20065;-79
2022/08/29 11:36:16;;;;;;;5.72;2.85;;;;;;;17.75;64.17;102321.59;5012951;28;20406;-79
2022/08/29 11:39:00;;;;;;;4.40;2.35;;;;;;;17.80;64.42;102326.69;5013198;28;20045;-79
2022/08/29 11:41:36;;;;;;;7.47;2.97;;;;;;;17.86;63.90;102315.84;5003748;28;20333;-79